UNM, New Mexico
Current Conditions -  °F | °C
As of 8:52 PM on Thursday 20 Nov 2014 (Local Time) from KABQ Reporting Station
Clear Clear  
Wind Chill: 38°   Ceiling: Unl
Heat Index: 38°   Visibility: 10mi
Dew Point: 10°   Wind: 3mph
Humidity: 32%   Direction: 110°ESE
Pressure: 30.06"   Gusts: NA
Location:  35.0525°N, 106.616°W
Report Text: KABQ 210352Z 11003KT 10SM CLR 03/M12 A3006 RMK AO2 SLP174 T00331122
Loading
Personal Weather Stations






























Interactive Weather Map New forecast layout! Learn more

10-Day Weather Forecast

Advertisements
Track Severe Weather on mobile